sensor_id;sensor_type;location;lat;lon;timestamp;pressure;altitude;pressure_sealevel;temperature;humidity
65756;BME280;52489;47.502;18.940;2023-02-21T00:00:58;98078.13;;;4.77;86.82
65756;BME280;52489;47.502;18.940;2023-02-21T00:02:20;98064.87;;;4.79;86.90
65756;BME280;52489;47.502;18.940;2023-02-21T00:03:41;98073.19;;;4.71;87.03
65756;BME280;52489;47.502;18.940;2023-02-21T00:05:06;98069.56;;;4.72;86.95
65756;BME280;52489;47.502;18.940;2023-02-21T00:06:28;98071.63;;;4.75;86.75
65756;BME280;52489;47.502;18.940;2023-02-21T00:07:50;98070.09;;;4.74;86.80
65756;BME280;52489;47.502;18.940;2023-02-21T00:09:12;98074.25;;;4.80;86.35
65756;BME280;52489;47.502;18.940;2023-02-21T00:10:34;98066.97;;;4.82;86.06
65756;BME280;52489;47.502;18.940;2023-02-21T00:11:56;98062.06;;;4.81;85.92
65756;BME280;52489;47.502;18.940;2023-02-21T00:13:17;98064.91;;;4.84;85.78
65756;BME280;52489;47.502;18.940;2023-02-21T00:14:39;98062.34;;;4.89;85.46
65756;BME280;52489;47.502;18.940;2023-02-21T00:16:01;98054.28;;;4.91;85.09
65756;BME280;52489;47.502;18.940;2023-02-21T00:17:23;98046.75;;;4.89;84.91
65756;BME280;52489;47.502;18.940;2023-02-21T00:18:44;98054.81;;;4.98;84.53
65756;BME280;52489;47.502;18.940;2023-02-21T00:20:07;98055.59;;;4.98;84.25
65756;BME280;52489;47.502;18.940;2023-02-21T00:21:29;98057.44;;;5.03;84.01
65756;BME280;52489;47.502;18.940;2023-02-21T00:22:52;98050.66;;;5.02;83.86
65756;BME280;52489;47.502;18.940;2023-02-21T00:24:17;98056.38;;;5.14;83.19
65756;BME280;52489;47.502;18.940;2023-02-21T00:25:39;98054.84;;;5.23;82.13
65756;BME280;52489;47.502;18.940;2023-02-21T00:27:01;98043.69;;;5.54;80.48
65756;BME280;52489;47.502;18.940;2023-02-21T00:28:24;98059.53;;;5.42;80.64
65756;BME280;52489;47.502;18.940;2023-02-21T00:29:47;98062.12;;;5.42;80.58
65756;BME280;52489;47.502;18.940;2023-02-21T00:31:09;98059.28;;;5.38;80.47
65756;BME280;52489;47.502;18.940;2023-02-21T00:32:30;98054.84;;;5.39;80.66
65756;BME280;52489;47.502;18.940;2023-02-21T00:33:52;98061.88;;;5.38;80.54
65756;BME280;52489;47.502;18.940;2023-02-21T00:35:14;98059.00;;;5.40;80.31
65756;BME280;52489;47.502;18.940;2023-02-21T00:36:36;98062.91;;;5.42;80.21
65756;BME280;52489;47.502;18.940;2023-02-21T00:37:57;98060.81;;;5.39;80.09
65756;BME280;52489;47.502;18.940;2023-02-21T00:39:19;98065.75;;;5.41;80.15
65756;BME280;52489;47.502;18.940;2023-02-21T00:40:41;98056.16;;;5.36;79.82
65756;BME280;52489;47.502;18.940;2023-02-21T00:42:03;98057.69;;;5.32;80.41
65756;BME280;52489;47.502;18.940;2023-02-21T00:43:32;98063.16;;;5.31;80.30
65756;BME280;52489;47.502;18.940;2023-02-21T00:44:54;98053.81;;;5.24;80.33
65756;BME280;52489;47.502;18.940;2023-02-21T00:46:16;98053.81;;;5.24;80.44
65756;BME280;52489;47.502;18.940;2023-02-21T00:47:38;98054.06;;;5.23;80.26
65756;BME280;52489;47.502;18.940;2023-02-21T00:49:00;98054.56;;;5.20;80.23
65756;BME280;52489;47.502;18.940;2023-02-21T00:50:22;98063.66;;;5.17;80.23
65756;BME280;52489;47.502;18.940;2023-02-21T00:51:43;98054.59;;;5.15;80.25
65756;BME280;52489;47.502;18.940;2023-02-21T00:53:05;98057.69;;;5.17;80.32
65756;BME280;52489;47.502;18.940;2023-02-21T00:54:26;98058.72;;;5.16;79.84
65756;BME280;52489;47.502;18.940;2023-02-21T00:55:48;98046.25;;;5.02;80.32
65756;BME280;52489;47.502;18.940;2023-02-21T00:57:10;98044.97;;;5.00;80.58
65756;BME280;52489;47.502;18.940;2023-02-21T00:58:32;98047.56;;;4.95;80.60
65756;BME280;52489;47.502;18.940;2023-02-21T00:59:54;98051.69;;;4.96;80.72
65756;BME280;52489;47.502;18.940;2023-02-21T01:01:16;98048.56;;;4.94;80.80
65756;BME280;52489;47.502;18.940;2023-02-21T01:02:38;98053.25;;;4.87;81.05
65756;BME280;52489;47.502;18.940;2023-02-21T01:04:00;98048.81;;;4.82;81.46
65756;BME280;52489;47.502;18.940;2023-02-21T01:05:21;98036.09;;;4.81;81.67
65756;BME280;52489;47.502;18.940;2023-02-21T01:06:43;98048.81;;;4.77;82.01
65756;BME280;52489;47.502;18.940;2023-02-21T01:08:05;98048.03;;;4.76;82.08
65756;BME280;52489;47.502;18.940;2023-02-21T01:09:27;98039.75;;;4.90;82.25
65756;BME280;52489;47.502;18.940;2023-02-21T01:10:48;98042.09;;;4.86;82.00
65756;BME280;52489;47.502;18.940;2023-02-21T01:12:10;98041.28;;;4.81;82.58
65756;BME280;52489;47.502;18.940;2023-02-21T01:13:32;98041.28;;;4.81;82.71
65756;BME280;52489;47.502;18.940;2023-02-21T01:14:54;98046.72;;;4.79;82.73
65756;BME280;52489;47.502;18.940;2023-02-21T01:16:16;98043.09;;;4.75;82.94
65756;BME280;52489;47.502;18.940;2023-02-21T01:17:37;98051.66;;;4.75;82.91
65756;BME280;52489;47.502;18.940;2023-02-21T01:18:59;98045.44;;;4.71;82.69
65756;BME280;52489;47.502;18.940;2023-02-21T01:20:20;98043.88;;;4.75;82.76
65756;BME280;52489;47.502;18.940;2023-02-21T01:21:42;98043.88;;;4.75;82.37
65756;BME280;52489;47.502;18.940;2023-02-21T01:23:03;98049.28;;;4.64;82.71
65756;BME280;52489;47.502;18.940;2023-02-21T01:24:25;98047.19;;;4.61;82.79
65756;BME280;52489;47.502;18.940;2023-02-21T01:25:46;98049.31;;;4.69;82.79
65756;BME280;52489;47.502;18.940;2023-02-21T01:27:08;98048.03;;;4.76;82.29
65756;BME280;52489;47.502;18.940;2023-02-21T01:28:30;98040.47;;;4.70;82.53
65756;BME280;52489;47.502;18.940;2023-02-21T01:29:51;98046.97;;;4.62;82.90
65756;BME280;52489;47.502;18.940;2023-02-21T01:31:18;98044.59;;;4.61;83.05
65756;BME280;52489;47.502;18.940;2023-02-21T01:32:40;98049.81;;;4.61;83.20
65756;BME280;52489;47.502;18.940;2023-02-21T01:34:01;98040.50;;;4.65;83.34
65756;BME280;52489;47.502;18.940;2023-02-21T01:35:23;98046.19;;;4.72;82.96
65756;BME280;52489;47.502;18.940;2023-02-21T01:36:45;98040.75;;;4.68;83.08
65756;BME280;52489;47.502;18.940;2023-02-21T01:38:06;98043.09;;;4.65;83.25
65756;BME280;52489;47.502;18.940;2023-02-21T01:39:28;98041.50;;;4.64;83.33
65756;BME280;52489;47.502;18.940;2023-02-21T01:40:50;98041.00;;;4.72;83.02
65756;BME280;52489;47.502;18.940;2023-02-21T01:42:11;98036.09;;;4.70;83.07
65756;BME280;52489;47.502;18.940;2023-02-21T01:43:33;98037.66;;;4.82;82.49
65756;BME280;52489;47.502;18.940;2023-02-21T01:46:42;98028.06;;;4.77;82.36
65756;BME280;52489;47.502;18.940;2023-02-21T01:48:05;98037.13;;;4.74;82.59
65756;BME280;52489;47.502;18.940;2023-02-21T01:49:27;98035.59;;;4.73;82.70
65756;BME280;52489;47.502;18.940;2023-02-21T01:50:51;98045.47;;;4.87;81.92
65756;BME280;52489;47.502;18.940;2023-02-21T01:52:15;98046.47;;;4.81;81.87
65756;BME280;52489;47.502;18.940;2023-02-21T01:53:37;98042.84;;;4.76;81.96
65756;BME280;52489;47.502;18.940;2023-02-21T01:54:59;98036.34;;;4.84;81.67
65756;BME280;52489;47.502;18.940;2023-02-21T01:56:22;98024.16;;;4.74;81.97
65756;BME280;52489;47.502;18.940;2023-02-21T01:57:44;98027.78;;;4.73;81.55
65756;BME280;52489;47.502;18.940;2023-02-21T01:59:08;98017.16;;;4.75;81.60
65756;BME280;52489;47.502;18.940;2023-02-21T02:00:30;98023.91;;;4.71;81.58
65756;BME280;52489;47.502;18.940;2023-02-21T02:02:03;98015.56;;;4.69;81.59
65756;BME280;52489;47.502;18.940;2023-02-21T02:03:25;98006.22;;;4.63;81.68
65756;BME280;52489;47.502;18.940;2023-02-21T02:04:48;98008.03;;;4.62;81.89
65756;BME280;52489;47.502;18.940;2023-02-21T02:06:13;98012.16;;;4.58;81.86
65756;BME280;52489;47.502;18.940;2023-02-21T02:07:37;98012.41;;;4.46;82.11
65756;BME280;52489;47.502;18.940;2023-02-21T02:09:12;98006.72;;;4.44;82.26
65756;BME280;52489;47.502;18.940;2023-02-21T02:10:35;98007.47;;;4.45;82.43
65756;BME280;52489;47.502;18.940;2023-02-21T02:13:08;98003.03;;;4.40;82.67
65756;BME280;52489;47.502;18.940;2023-02-21T02:13:49;98002.81;;;4.42;82.46
65756;BME280;52489;47.502;18.940;2023-02-21T02:16:46;98003.53;;;4.27;83.56
65756;BME280;52489;47.502;18.940;2023-02-21T02:23:20;98011.84;;;4.34;83.65
65756;BME280;52489;47.502;18.940;2023-02-21T02:30:06;98001.25;;;4.46;83.10
65756;BME280;52489;47.502;18.940;2023-02-21T02:32:18;97992.69;;;4.45;83.14
65756;BME280;52489;47.502;18.940;2023-02-21T02:36:29;97990.38;;;4.54;82.65
65756;BME280;52489;47.502;18.940;2023-02-21T02:37:40;97991.44;;;4.53;82.75
65756;BME280;52489;47.502;18.940;2023-02-21T02:40:40;97987.53;;;4.55;82.54
65756;BME280;52489;47.502;18.940;2023-02-21T02:42:23;97988.81;;;4.48;82.82
65756;BME280;52489;47.502;18.940;2023-02-21T02:43:32;97978.69;;;4.46;82.88
65756;BME280;52489;47.502;18.940;2023-02-21T02:44:41;97981.03;;;4.58;82.48
65756;BME280;52489;47.502;18.940;2023-02-21T02:45:53;97982.84;;;4.57;82.53
65756;BME280;52489;47.502;18.940;2023-02-21T02:47:00;97982.88;;;4.63;82.16
65756;BME280;52489;47.502;18.940;2023-02-21T02:48:35;97982.88;;;4.63;82.26
65756;BME280;52489;47.502;18.940;2023-02-21T02:49:42;97980.03;;;4.59;82.56
65756;BME280;52489;47.502;18.940;2023-02-21T02:50:48;97981.31;;;4.62;82.60
65756;BME280;52489;47.502;18.940;2023-02-21T02:51:53;97977.69;;;4.68;82.31
65756;BME280;52489;47.502;18.940;2023-02-21T02:53:00;97983.66;;;4.63;82.46
65756;BME280;52489;47.502;18.940;2023-02-21T02:54:04;97982.09;;;4.67;82.62
65756;BME280;52489;47.502;18.940;2023-02-21T02:55:38;97980.81;;;4.65;82.71
65756;BME280;52489;47.502;18.940;2023-02-21T02:56:42;97990.66;;;4.63;82.86
65756;BME280;52489;47.502;18.940;2023-02-21T02:57:46;97981.59;;;4.65;82.84
65756;BME280;52489;47.502;18.940;2023-02-21T02:58:54;97985.72;;;4.61;82.92
65756;BME280;52489;47.502;18.940;2023-02-21T02:59:59;97977.69;;;4.63;82.92
65756;BME280;52489;47.502;18.940;2023-02-21T03:02:33;97983.66;;;4.68;82.82
65756;BME280;52489;47.502;18.940;2023-02-21T03:03:54;97977.94;;;4.66;82.84
65756;BME280;52489;47.502;18.940;2023-02-21T03:08:08;97979.50;;;4.62;83.11
65756;BME280;52489;47.502;18.940;2023-02-21T03:10:31;97978.72;;;4.62;83.28
65756;BME280;52489;47.502;18.940;2023-02-21T03:13:02;97972.75;;;4.66;83.23
65756;BME280;52489;47.502;18.940;2023-02-21T03:14:15;97979.00;;;4.70;83.03
65756;BME280;52489;47.502;18.940;2023-02-21T03:15:24;97978.19;;;4.70;83.29
65756;BME280;52489;47.502;18.940;2023-02-21T03:16:40;97978.22;;;4.75;82.91
65756;BME280;52489;47.502;18.940;2023-02-21T03:17:52;97982.63;;;4.74;82.84
65756;BME280;52489;47.502;18.940;2023-02-21T03:19:01;97981.31;;;4.82;82.77
65756;BME280;52489;47.502;18.940;2023-02-21T03:20:07;97977.47;;;4.79;82.68
65756;BME280;52489;47.502;18.940;2023-02-21T03:21:16;97982.91;;;4.83;82.43
65756;BME280;52489;47.502;18.940;2023-02-21T03:22:23;97985.75;;;4.92;82.21
65756;BME280;52489;47.502;18.940;2023-02-21T03:23:31;97987.56;;;4.96;82.21
65756;BME280;52489;47.502;18.940;2023-02-21T03:24:38;97988.09;;;4.98;82.25
65756;BME280;52489;47.502;18.940;2023-02-21T03:25:43;97990.94;;;5.02;82.13
65756;BME280;52489;47.502;18.940;2023-02-21T03:26:52;97989.41;;;5.01;82.24
65756;BME280;52489;47.502;18.940;2023-02-21T03:27:57;97996.41;;;5.06;81.98
65756;BME280;52489;47.502;18.940;2023-02-21T03:29:03;97996.16;;;5.28;81.23
65756;BME280;52489;47.502;18.940;2023-02-21T03:30:07;97994.34;;;5.33;80.72
65756;BME280;52489;47.502;18.940;2023-02-21T03:31:13;97996.69;;;5.30;80.96
65756;BME280;52489;47.502;18.940;2023-02-21T03:32:29;97989.87;;;5.44;80.68
65756;BME280;52489;47.502;18.940;2023-02-21T03:33:33;97991.97;;;5.62;79.48
65756;BME280;52489;47.502;18.940;2023-02-21T03:34:38;97990.38;;;5.72;79.31
65756;BME280;52489;47.502;18.940;2023-02-21T03:35:41;97995.81;;;5.70;79.19
65756;BME280;52489;47.502;18.940;2023-02-21T03:36:45;97988.00;;;5.75;79.00
65756;BME280;52489;47.502;18.940;2023-02-21T03:37:52;97986.97;;;5.76;78.99
65756;BME280;52489;47.502;18.940;2023-02-21T03:38:55;97999.44;;;5.79;78.88
65756;BME280;52489;47.502;18.940;2023-02-21T03:39:59;98002.03;;;5.89;78.20
65756;BME280;52489;47.502;18.940;2023-02-21T03:41:02;97985.88;;;6.03;77.71
65756;BME280;52489;47.502;18.940;2023-02-21T03:42:05;97988.22;;;6.04;77.45
65756;BME280;52489;47.502;18.940;2023-02-21T03:43:08;97988.69;;;6.17;76.89
65756;BME280;52489;47.502;18.940;2023-02-21T03:44:11;97990.41;;;6.36;76.32
65756;BME280;52489;47.502;18.940;2023-02-21T03:45:15;97982.03;;;6.45;75.38
65756;BME280;52489;47.502;18.940;2023-02-21T03:46:18;97988.56;;;6.42;75.53
65756;BME280;52489;47.502;18.940;2023-02-21T03:47:21;97978.31;;;6.61;74.67
65756;BME280;52489;47.502;18.940;2023-02-21T03:48:24;97970.41;;;6.71;74.21
65756;BME280;52489;47.502;18.940;2023-02-21T03:49:33;97957.06;;;6.83;73.49
65756;BME280;52489;47.502;18.940;2023-02-21T03:50:36;97962.56;;;6.81;73.57
65756;BME280;52489;47.502;18.940;2023-02-21T03:51:40;97964.31;;;6.86;73.36
65756;BME280;52489;47.502;18.940;2023-02-21T03:52:43;97966.94;;;6.86;73.24
65756;BME280;52489;47.502;18.940;2023-02-21T03:53:46;97972.41;;;6.84;73.76
65756;BME280;52489;47.502;18.940;2023-02-21T03:54:49;97965.63;;;6.89;73.12
65756;BME280;52489;47.502;18.940;2023-02-21T03:55:52;97969.03;;;6.84;73.50
65756;BME280;52489;47.502;18.940;2023-02-21T03:56:55;97973.75;;;6.77;73.98
65756;BME280;52489;47.502;18.940;2023-02-21T03:57:58;97967.00;;;6.81;73.79
65756;BME280;52489;47.502;18.940;2023-02-21T03:59:02;97968.72;;;6.91;73.11
65756;BME280;52489;47.502;18.940;2023-02-21T04:00:05;97967.41;;;6.93;72.86
65756;BME280;52489;47.502;18.940;2023-02-21T04:01:14;97963.50;;;6.96;72.45
65756;BME280;52489;47.502;18.940;2023-02-21T04:02:18;97960.59;;;6.97;72.70
65756;BME280;52489;47.502;18.940;2023-02-21T04:03:21;97968.38;;;7.02;72.37
65756;BME280;52489;47.502;18.940;2023-02-21T04:04:24;97970.72;;;7.04;72.43
65756;BME280;52489;47.502;18.940;2023-02-21T04:05:27;97961.34;;;7.03;72.20
65756;BME280;52489;47.502;18.940;2023-02-21T04:06:30;97974.69;;;6.96;72.57
65756;BME280;52489;47.502;18.940;2023-02-21T04:07:33;97978.06;;;6.97;72.53
65756;BME280;52489;47.502;18.940;2023-02-21T04:08:36;97971.84;;;6.93;72.98
65756;BME280;52489;47.502;18.940;2023-02-21T04:09:39;97977.00;;;6.98;72.81
65756;BME280;52489;47.502;18.940;2023-02-21T04:10:43;97974.13;;;6.99;72.78
65756;BME280;52489;47.502;18.940;2023-02-21T04:11:54;97968.91;;;7.04;72.29
65756;BME280;52489;47.502;18.940;2023-02-21T04:12:57;97960.34;;;6.99;72.38
65756;BME280;52489;47.502;18.940;2023-02-21T04:14:00;97957.19;;;7.02;72.07
65756;BME280;52489;47.502;18.940;2023-02-21T04:15:03;97964.13;;;7.12;71.68
65756;BME280;52489;47.502;18.940;2023-02-21T04:16:06;97969.38;;;7.06;71.95
65756;BME280;52489;47.502;18.940;2023-02-21T04:17:09;97962.03;;;7.14;71.64
65756;BME280;52489;47.502;18.940;2023-02-21T04:18:12;97971.91;;;7.17;71.48
65756;BME280;52489;47.502;18.940;2023-02-21T04:19:16;97972.16;;;7.15;71.64
65756;BME280;52489;47.502;18.940;2023-02-21T04:20:19;97964.31;;;7.20;71.21
65756;BME280;52489;47.502;18.940;2023-02-21T04:21:22;97972.44;;;7.19;71.32
65756;BME280;52489;47.502;18.940;2023-02-21T04:22:25;97968.06;;;7.09;71.67
65756;BME280;52489;47.502;18.940;2023-02-21T04:23:28;97970.62;;;7.14;71.34
65756;BME280;52489;47.502;18.940;2023-02-21T04:24:31;97968.28;;;7.13;71.59
65756;BME280;52489;47.502;18.940;2023-02-21T04:25:35;97969.31;;;7.17;71.41
65756;BME280;52489;47.502;18.940;2023-02-21T04:26:38;97968.75;;;7.20;71.03
65756;BME280;52489;47.502;18.940;2023-02-21T04:27:41;97960.44;;;7.18;71.50
65756;BME280;52489;47.502;18.940;2023-02-21T04:28:44;97949.69;;;7.24;70.93
65756;BME280;52489;47.502;18.940;2023-02-21T04:29:47;97958.31;;;7.25;71.25
65756;BME280;52489;47.502;18.940;2023-02-21T04:30:50;97952.28;;;7.24;70.95
65756;BME280;52489;47.502;18.940;2023-02-21T04:31:53;97956.69;;;7.29;70.74
65756;BME280;52489;47.502;18.940;2023-02-21T04:32:57;97948.31;;;7.32;70.85
65756;BME280;52489;47.502;18.940;2023-02-21T04:34:00;97949.88;;;7.33;70.66
65756;BME280;52489;47.502;18.940;2023-02-21T04:35:13;97951.25;;;7.25;71.02
65756;BME280;52489;47.502;18.940;2023-02-21T04:36:16;97951.44;;;7.34;70.57
65756;BME280;52489;47.502;18.940;2023-02-21T04:37:20;97947.56;;;7.32;70.63
65756;BME280;52489;47.502;18.940;2023-02-21T04:38:23;97948.72;;;7.44;69.89
65756;BME280;52489;47.502;18.940;2023-02-21T04:39:26;97944.53;;;7.48;69.57
65756;BME280;52489;47.502;18.940;2023-02-21T04:40:29;97949.81;;;7.38;70.15
65756;BME280;52489;47.502;18.940;2023-02-21T04:41:33;97949.22;;;7.46;69.74
65756;BME280;52489;47.502;18.940;2023-02-21T04:42:36;97945.34;;;7.44;69.57
65756;BME280;52489;47.502;18.940;2023-02-21T04:43:41;97948.38;;;7.51;69.30
65756;BME280;52489;47.502;18.940;2023-02-21T04:44:45;97957.00;;;7.51;69.02
65756;BME280;52489;47.502;18.940;2023-02-21T04:46:01;97940.84;;;7.49;69.45
65756;BME280;52489;47.502;18.940;2023-02-21T04:47:04;97954.41;;;7.51;69.04
65756;BME280;52489;47.502;18.940;2023-02-21T04:48:07;97953.38;;;7.47;69.33
65756;BME280;52489;47.502;18.940;2023-02-21T04:49:13;97959.16;;;7.44;69.37
65756;BME280;52489;47.502;18.940;2023-02-21T04:50:17;97960.09;;;7.53;68.93
65756;BME280;52489;47.502;18.940;2023-02-21T04:51:22;97960.16;;;7.48;68.98
65756;BME280;52489;47.502;18.940;2023-02-21T04:52:25;97951.53;;;7.48;69.17
65756;BME280;52489;47.502;18.940;2023-02-21T04:53:28;97957.09;;;7.41;69.58
65756;BME280;52489;47.502;18.940;2023-02-21T04:54:31;97957.94;;;7.37;69.57
65756;BME280;52489;47.502;18.940;2023-02-21T04:55:34;97958.47;;;7.34;69.46
65756;BME280;52489;47.502;18.940;2023-02-21T04:56:37;97959.03;;;7.31;69.90
65756;BME280;52489;47.502;18.940;2023-02-21T04:57:41;97953.75;;;7.36;69.64
65756;BME280;52489;47.502;18.940;2023-02-21T04:58:44;97956.44;;;7.31;69.77
65756;BME280;52489;47.502;18.940;2023-02-21T04:59:47;97960.63;;;7.26;69.96
65756;BME280;52489;47.502;18.940;2023-02-21T05:00:50;97967.13;;;7.29;69.89
65756;BME280;52489;47.502;18.940;2023-02-21T05:01:54;97960.06;;;7.29;70.03
65756;BME280;52489;47.502;18.940;2023-02-21T05:02:57;97965.81;;;7.26;69.98
65756;BME280;52489;47.502;18.940;2023-02-21T05:04:00;97960.16;;;7.19;70.27
65756;BME280;52489;47.502;18.940;2023-02-21T05:05:04;97961.69;;;7.25;69.97
65756;BME280;52489;47.502;18.940;2023-02-21T05:06:07;97960.34;;;7.28;69.85
65756;BME280;52489;47.502;18.940;2023-02-21T05:07:10;97949.97;;;7.23;70.26
65756;BME280;52489;47.502;18.940;2023-02-21T05:08:13;97954.03;;;7.34;69.64
65756;BME280;52489;47.502;18.940;2023-02-21T05:09:16;97951.22;;;7.31;69.51
65756;BME280;52489;47.502;18.940;2023-02-21T05:10:19;97951.69;;;7.33;69.68
65756;BME280;52489;47.502;18.940;2023-02-21T05:11:23;97952.75;;;7.32;69.54
65756;BME280;52489;47.502;18.940;2023-02-21T05:12:26;97948.31;;;7.32;69.55
65756;BME280;52489;47.502;18.940;2023-02-21T05:13:29;97954.34;;;7.27;69.66
65756;BME280;52489;47.502;18.940;2023-02-21T05:14:32;97953.63;;;7.22;69.88
65756;BME280;52489;47.502;18.940;2023-02-21T05:15:35;97950.94;;;7.32;69.42
65756;BME280;52489;47.502;18.940;2023-02-21T05:16:38;97952.53;;;7.28;69.70
65756;BME280;52489;47.502;18.940;2023-02-21T05:17:41;97957.75;;;7.28;69.59
65756;BME280;52489;47.502;18.940;2023-02-21T05:18:45;97962.78;;;7.19;69.91
65756;BME280;52489;47.502;18.940;2023-02-21T05:19:48;97956.91;;;7.33;69.31
65756;BME280;52489;47.502;18.940;2023-02-21T05:20:51;97958.87;;;7.17;69.95
65756;BME280;52489;47.502;18.940;2023-02-21T05:21:56;97953.75;;;7.36;69.09
65756;BME280;52489;47.502;18.940;2023-02-21T05:22:59;97962.69;;;7.29;69.51
65756;BME280;52489;47.502;18.940;2023-02-21T05:24:14;97954.91;;;7.24;69.45
65756;BME280;52489;47.502;18.940;2023-02-21T05:25:20;97973.37;;;7.28;69.43
65756;BME280;52489;47.502;18.940;2023-02-21T05:26:26;97962.62;;;7.35;69.18
65756;BME280;52489;47.502;18.940;2023-02-21T05:27:31;97959.06;;;7.25;69.83
65756;BME280;52489;47.502;18.940;2023-02-21T05:28:36;97952.28;;;7.24;69.57
65756;BME280;52489;47.502;18.940;2023-02-21T05:29:48;97957.19;;;7.31;69.34
65756;BME280;52489;47.502;18.940;2023-02-21T05:30:52;97959.44;;;7.43;68.81
65756;BME280;52489;47.502;18.940;2023-02-21T05:31:55;97959.03;;;7.31;69.36
65756;BME280;52489;47.502;18.940;2023-02-21T05:32:58;97954.19;;;7.19;69.63
65756;BME280;52489;47.502;18.940;2023-02-21T05:34:01;97962.53;;;7.16;69.97
65756;BME280;52489;47.502;18.940;2023-02-21T05:35:04;97964.09;;;7.17;69.87
65756;BME280;52489;47.502;18.940;2023-02-21T05:36:08;97952.63;;;7.18;69.81
65756;BME280;52489;47.502;18.940;2023-02-21T05:37:12;97958.41;;;7.10;70.09
65756;BME280;52489;47.502;18.940;2023-02-21T05:38:18;97949.78;;;7.14;69.91
65756;BME280;52489;47.502;18.940;2023-02-21T05:39:22;97952.72;;;7.07;70.35
65756;BME280;52489;47.502;18.940;2023-02-21T05:40:25;97949.28;;;7.12;70.18
65756;BME280;52489;47.502;18.940;2023-02-21T05:41:28;97949.94;;;7.28;69.40
65756;BME280;52489;47.502;18.940;2023-02-21T05:42:31;97933.75;;;7.31;69.17
65756;BME280;52489;47.502;18.940;2023-02-21T05:43:35;97939.50;;;7.28;69.34
65756;BME280;52489;47.502;18.940;2023-02-21T05:44:38;97938.22;;;7.25;69.25
65756;BME280;52489;47.502;18.940;2023-02-21T05:45:41;97936.91;;;7.28;69.37
65756;BME280;52489;47.502;18.940;2023-02-21T05:46:44;97929.91;;;7.23;69.52
65756;BME280;52489;47.502;18.940;2023-02-21T05:47:47;97939.69;;;7.37;69.08
65756;BME280;52489;47.502;18.940;2023-02-21T05:48:52;97935.81;;;7.34;69.03
65756;BME280;52489;47.502;18.940;2023-02-21T05:49:55;97933.94;;;7.40;68.88
65756;BME280;52489;47.502;18.940;2023-02-21T05:50:58;97932.12;;;7.35;69.06
65756;BME280;52489;47.502;18.940;2023-02-21T05:52:02;97938.62;;;7.38;68.95
65756;BME280;52489;47.502;18.940;2023-02-21T05:53:07;97941.66;;;7.21;69.62
65756;BME280;52489;47.502;18.940;2023-02-21T05:54:18;97945.28;;;7.25;69.52
65756;BME280;52489;47.502;18.940;2023-02-21T05:55:21;97947.91;;;7.20;69.55
65756;BME280;52489;47.502;18.940;2023-02-21T05:56:24;97940.09;;;7.20;69.99
65756;BME280;52489;47.502;18.940;2023-02-21T05:57:27;97945.03;;;7.21;69.79
65756;BME280;52489;47.502;18.940;2023-02-21T05:58:32;97942.16;;;7.23;69.74
65756;BME280;52489;47.502;18.940;2023-02-21T05:59:36;97943.16;;;7.27;69.66
65756;BME280;52489;47.502;18.940;2023-02-21T06:00:39;97944.16;;;7.31;69.64
65756;BME280;52489;47.502;18.940;2023-02-21T06:01:42;97947.81;;;7.30;69.83
65756;BME280;52489;47.502;18.940;2023-02-21T06:02:45;97947.06;;;7.24;69.93
65756;BME280;52489;47.502;18.940;2023-02-21T06:03:48;97953.38;;;7.18;70.34
65756;BME280;52489;47.502;18.940;2023-02-21T06:04:52;97957.31;;;7.16;70.38
65756;BME280;52489;47.502;18.940;2023-02-21T06:05:54;97957.59;;;7.14;70.53
65756;BME280;52489;47.502;18.940;2023-02-21T06:06:58;97954.91;;;7.24;69.89
65756;BME280;52489;47.502;18.940;2023-02-21T06:08:01;97963.44;;;7.30;69.84
65756;BME280;52489;47.502;18.940;2023-02-21T06:09:05;97962.16;;;7.27;69.97
65756;BME280;52489;47.502;18.940;2023-02-21T06:10:08;97962.25;;;7.17;70.38
65756;BME280;52489;47.502;18.940;2023-02-21T06:11:13;97969.84;;;7.14;70.71
65756;BME280;52489;47.502;18.940;2023-02-21T06:12:17;97971.06;;;7.21;70.71
65756;BME280;52489;47.502;18.940;2023-02-21T06:13:20;97969.81;;;7.19;70.33
65756;BME280;52489;47.502;18.940;2023-02-21T06:14:23;97973.00;;;7.11;70.63
65756;BME280;52489;47.502;18.940;2023-02-21T06:15:27;97977.38;;;7.15;70.46
65756;BME280;52489;47.502;18.940;2023-02-21T06:16:37;97979.75;;;7.12;70.54
65756;BME280;52489;47.502;18.940;2023-02-21T06:17:41;97983.13;;;7.12;70.62
65756;BME280;52489;47.502;18.940;2023-02-21T06:18:44;97981.37;;;7.07;70.75
65756;BME280;52489;47.502;18.940;2023-02-21T06:19:51;97976.94;;;7.08;70.76
65756;BME280;52489;47.502;18.940;2023-02-21T06:20:54;97985.97;;;7.16;70.60
65756;BME280;52489;47.502;18.940;2023-02-21T06:21:57;97979.78;;;7.06;70.86
65756;BME280;52489;47.502;18.940;2023-02-21T06:23:00;97982.38;;;7.12;70.86
65756;BME280;52489;47.502;18.940;2023-02-21T06:24:03;97976.66;;;7.10;71.09
65756;BME280;52489;47.502;18.940;2023-02-21T06:25:07;97979.00;;;7.11;71.00
65756;BME280;52489;47.502;18.940;2023-02-21T06:26:11;97988.09;;;7.14;71.01
65756;BME280;52489;47.502;18.940;2023-02-21T06:27:14;97989.31;;;7.21;70.84
65756;BME280;52489;47.502;18.940;2023-02-21T06:28:17;97981.50;;;7.21;71.10
65756;BME280;52489;47.502;18.940;2023-02-21T06:29:21;97982.09;;;7.13;71.19
65756;BME280;52489;47.502;18.940;2023-02-21T06:30:24;97975.47;;;7.26;70.87
65756;BME280;52489;47.502;18.940;2023-02-21T06:31:27;97983.34;;;7.21;71.19
65756;BME280;52489;47.502;18.940;2023-02-21T06:32:30;97991.84;;;7.32;70.73
65756;BME280;52489;47.502;18.940;2023-02-21T06:33:33;97993.69;;;7.31;70.69
65756;BME280;52489;47.502;18.940;2023-02-21T06:34:36;97984.34;;;7.25;71.17
65756;BME280;52489;47.502;18.940;2023-02-21T06:35:39;97988.06;;;7.19;71.34
65756;BME280;52489;47.502;18.940;2023-02-21T06:36:42;97978.34;;;7.24;71.28
65756;BME280;52489;47.502;18.940;2023-02-21T06:37:45;97991.84;;;7.32;71.31
65756;BME280;52489;47.502;18.940;2023-02-21T06:38:50;97986.09;;;7.35;71.38
65756;BME280;52489;47.502;18.940;2023-02-21T06:39:54;97991.34;;;7.29;71.68
65756;BME280;52489;47.502;18.940;2023-02-21T06:40:57;97994.41;;;7.37;71.86